createdAt,value
2023-01-21T00:00:38.653Z,18.70
2023-01-21T00:03:08.891Z,20.00
2023-01-21T00:05:39.352Z,18.50
2023-01-21T00:08:08.899Z,18.50
2023-01-21T00:10:38.681Z,18.10
2023-01-21T00:13:11.651Z,17.50
2023-01-21T00:15:42.106Z,18.80
2023-01-21T00:18:12.407Z,17.60
2023-01-21T00:20:42.521Z,19.70
2023-01-21T00:23:14.552Z,18.70
2023-01-21T00:25:41.837Z,18.10
2023-01-21T00:28:11.898Z,18.50
2023-01-21T00:30:42.293Z,20.80
2023-01-21T00:33:09.515Z,18.50
2023-01-21T00:35:42.591Z,17.90
2023-01-21T00:38:09.825Z,18.70
2023-01-21T00:40:43.315Z,17.80
2023-01-21T00:43:10.780Z,19.40
2023-01-21T00:45:41.513Z,18.10
2023-01-21T00:48:08.720Z,21.30
2023-01-21T00:50:45.000Z,20.70
2023-01-21T00:53:22.294Z,19.90
2023-01-21T00:55:56.289Z,19.40
2023-01-21T00:58:23.537Z,18.60
2023-01-21T01:01:30.590Z,17.60
2023-01-21T01:04:01.191Z,19.90
2023-01-21T01:06:36.188Z,19.90
2023-01-21T01:09:06.718Z,18.10
2023-01-21T01:11:39.397Z,17.80
2023-01-21T01:14:11.803Z,19.40
2023-01-21T01:16:49.302Z,17.80
2023-01-21T01:19:16.756Z,19.60
2023-01-21T01:21:47.192Z,18.60
2023-01-21T01:24:19.406Z,19.00
2023-01-21T01:26:46.969Z,19.70
2023-01-21T01:29:20.281Z,21.40
2023-01-21T01:32:10.559Z,18.80
2023-01-21T01:34:40.136Z,18.20
2023-01-21T01:37:15.781Z,17.40
2023-01-21T01:39:45.970Z,16.70
2023-01-21T01:42:17.772Z,19.70
2023-01-21T01:45:07.599Z,20.10
2023-01-21T01:47:43.372Z,17.60
2023-01-21T01:50:13.039Z,17.90
2023-01-21T01:52:52.507Z,19.20
2023-01-21T01:55:23.542Z,17.20
2023-01-21T01:57:53.201Z,14.70
2023-01-21T02:03:11.670Z,17.70
2023-01-21T02:05:46.886Z,13.90
2023-01-21T02:08:16.933Z,17.60
2023-01-21T02:10:46.519Z,18.00
2023-01-21T02:13:24.511Z,19.00
2023-01-21T02:16:26.449Z,17.70
2023-01-21T02:19:19.635Z,18.70
2023-01-21T02:22:16.685Z,16.70
2023-01-21T02:25:14.560Z,17.90
2023-01-21T02:27:57.579Z,17.90
2023-01-21T02:30:39.375Z,17.50
2023-01-21T02:36:31.571Z,16.80
2023-01-21T02:39:22.473Z,17.60
2023-01-21T02:42:26.639Z,16.30
2023-01-21T02:45:05.933Z,16.60
2023-01-21T02:48:06.664Z,15.50
2023-01-21T02:50:51.271Z,16.20
2023-01-21T02:53:32.604Z,16.70
2023-01-21T02:56:26.567Z,17.30
2023-01-21T02:59:01.296Z,14.20
2023-01-21T03:01:46.385Z,15.40
2023-01-21T03:05:03.675Z,16.40
2023-01-21T03:07:34.178Z,14.70
2023-01-21T03:10:20.085Z,14.40
2023-01-21T03:12:58.724Z,16.90
2023-01-21T03:16:03.413Z,16.20
2023-01-21T03:18:42.257Z,16.10
2023-01-21T03:21:18.917Z,14.80
2023-01-21T03:23:48.718Z,14.90
2023-01-21T03:26:41.907Z,14.50
2023-01-21T03:29:35.244Z,16.40
2023-01-21T03:32:06.694Z,14.70
2023-01-21T03:34:47.245Z,14.80
2023-01-21T03:37:39.790Z,16.50
2023-01-21T03:40:38.681Z,16.10
2023-01-21T03:43:06.140Z,13.70
2023-01-21T03:46:04.275Z,14.10
2023-01-21T03:48:55.543Z,13.80
2023-01-21T03:51:55.043Z,14.00
2023-01-21T03:54:43.187Z,15.60
2023-01-21T03:57:18.320Z,15.40
2023-01-21T03:59:54.695Z,14.80
2023-01-21T04:02:27.372Z,14.90
2023-01-21T04:05:00.474Z,15.60
2023-01-21T04:07:35.902Z,16.30
2023-01-21T04:12:52.940Z,12.30
2023-01-21T04:15:32.169Z,13.20
2023-01-21T04:18:02.507Z,13.60
2023-01-21T04:20:38.452Z,14.90
2023-01-21T04:23:13.077Z,14.30
2023-01-21T04:25:47.804Z,14.30
2023-01-21T04:28:22.642Z,12.80
2023-01-21T04:31:10.309Z,13.10
2023-01-21T04:33:50.736Z,14.10
2023-01-21T04:36:25.767Z,14.60
2023-01-21T04:38:55.985Z,14.00
2023-01-21T04:41:25.683Z,13.20
2023-01-21T04:43:53.059Z,14.50
2023-01-21T04:46:26.549Z,13.10
2023-01-21T04:48:56.568Z,12.00
2023-01-21T04:51:26.378Z,15.00
2023-01-21T04:54:03.976Z,12.30
2023-01-21T04:56:51.506Z,13.60
2023-01-21T04:59:18.760Z,12.90
2023-01-21T05:01:46.318Z,13.80
2023-01-21T05:04:27.598Z,12.30
2023-01-21T05:07:05.813Z,14.30
2023-01-21T05:09:35.834Z,14.10
2023-01-21T05:12:08.226Z,12.80
2023-01-21T05:14:35.656Z,13.20
2023-01-21T05:17:03.289Z,13.60
2023-01-21T05:19:33.646Z,12.90
2023-01-21T05:22:23.353Z,13.00
2023-01-21T05:25:00.813Z,12.80
2023-01-21T05:27:31.391Z,12.10
2023-01-21T05:29:58.599Z,12.30
2023-01-21T05:32:37.114Z,12.00
2023-01-21T05:35:14.200Z,13.40
2023-01-21T05:37:44.217Z,12.30
2023-01-21T05:40:12.496Z,12.40
2023-01-21T05:42:42.829Z,12.40
2023-01-21T05:45:15.497Z,12.50
2023-01-21T05:47:42.673Z,12.70
2023-01-21T05:50:14.004Z,13.70
2023-01-21T05:52:44.132Z,14.20
2023-01-21T05:55:29.596Z,13.60
2023-01-21T05:57:59.124Z,10.80
2023-01-21T06:00:48.556Z,13.00
2023-01-21T06:03:16.579Z,12.80
2023-01-21T06:05:44.623Z,11.80
2023-01-21T06:08:32.350Z,11.80
2023-01-21T06:11:09.453Z,12.60
2023-01-21T06:13:44.375Z,12.10
2023-01-21T06:16:14.084Z,13.70
2023-01-21T06:18:44.431Z,12.70
2023-01-21T06:21:20.462Z,11.10
2023-01-21T06:23:50.071Z,11.30
2023-01-21T06:26:29.977Z,11.40
2023-01-21T06:29:02.187Z,13.00
2023-01-21T06:31:29.517Z,12.10
2023-01-21T06:33:57.411Z,11.80
2023-01-21T06:36:27.584Z,10.60
2023-01-21T06:39:17.822Z,11.90
2023-01-21T06:41:50.400Z,12.80
2023-01-21T06:44:23.088Z,13.90
2023-01-21T06:47:00.650Z,11.40
2023-01-21T06:49:37.500Z,11.50
2023-01-21T06:52:04.853Z,11.00
2023-01-21T06:54:32.311Z,11.70
2023-01-21T06:57:04.990Z,13.20
2023-01-21T06:59:32.563Z,10.70
2023-01-21T07:02:02.465Z,11.00
2023-01-21T08:15:52.167Z,12.10
2023-01-21T08:18:19.787Z,12.20
2023-01-21T08:20:46.943Z,11.50
2023-01-21T08:23:14.192Z,10.60
2023-01-21T08:25:42.063Z,10.80
2023-01-21T08:28:09.413Z,11.20
2023-01-21T08:30:36.687Z,12.30
2023-01-21T08:33:06.405Z,13.10
2023-01-21T08:35:33.627Z,10.80
2023-01-21T08:38:01.755Z,11.40
2023-01-21T08:40:29.208Z,11.70
2023-01-21T08:43:02.499Z,12.00
2023-01-21T08:45:29.669Z,12.10
2023-01-21T08:47:57.305Z,10.30
2023-01-21T08:50:24.879Z,12.80
2023-01-21T08:52:53.372Z,12.20
2023-01-21T08:55:26.972Z,12.00
2023-01-21T08:57:56.096Z,13.00
2023-01-21T09:00:24.019Z,12.60
2023-01-21T09:02:57.181Z,12.20
2023-01-21T09:05:24.647Z,9.60
2023-01-21T09:07:57.202Z,12.00
2023-01-21T09:10:47.627Z,14.10
2023-01-21T09:13:17.435Z,13.20
2023-01-21T09:15:44.586Z,12.20
2023-01-21T09:18:11.890Z,12.10
2023-01-21T09:20:40.023Z,12.50
2023-01-21T09:23:24.686Z,12.60
2023-01-21T09:26:15.621Z,14.80
2023-01-21T09:28:45.090Z,12.20
2023-01-21T09:31:15.700Z,11.50
2023-01-21T09:33:47.163Z,11.50
2023-01-21T09:36:21.486Z,15.70
2023-01-21T09:39:08.941Z,16.10
2023-01-21T09:41:41.007Z,16.20
2023-01-21T09:44:10.962Z,12.70
2023-01-21T09:47:19.980Z,12.90
2023-01-21T09:49:56.650Z,14.60
2023-01-21T09:52:41.211Z,14.90
2023-01-21T09:55:27.508Z,14.20
2023-01-21T09:58:24.967Z,14.40
2023-01-21T10:01:05.234Z,12.40
2023-01-21T10:03:57.068Z,17.80
2023-01-21T10:06:52.091Z,15.70
2023-01-21T10:09:41.200Z,15.20
2023-01-21T10:12:23.145Z,15.20
2023-01-21T10:15:01.972Z,12.70
2023-01-21T10:17:53.466Z,11.50
2023-01-21T10:20:32.199Z,13.30
2023-01-21T10:23:12.798Z,13.30
2023-01-21T10:25:40.050Z,13.30
2023-01-21T10:28:28.574Z,14.50
2023-01-21T10:30:59.155Z,13.90
2023-01-21T10:33:27.142Z,13.60
2023-01-21T10:36:13.011Z,11.70
2023-01-21T10:38:59.237Z,12.40
2023-01-21T10:41:36.480Z,12.50
2023-01-21T10:44:25.664Z,12.50
2023-01-21T10:47:15.005Z,14.80
2023-01-21T10:49:55.183Z,13.40
2023-01-21T10:52:40.212Z,11.60
2023-01-21T10:55:41.464Z,15.50
2023-01-21T10:58:30.791Z,19.80
2023-01-21T11:01:01.156Z,21.20
2023-01-21T11:03:39.147Z,23.80
2023-01-21T11:06:08.571Z,21.10
2023-01-21T11:08:35.979Z,18.40
2023-01-21T11:11:03.182Z,14.00
2023-01-21T11:13:30.510Z,16.80
2023-01-21T11:15:58.752Z,17.70
2023-01-21T11:18:44.113Z,14.80
2023-01-21T11:21:27.949Z,15.00
2023-01-21T11:24:05.170Z,13.00
2023-01-21T11:26:36.259Z,14.60
2023-01-21T11:29:07.253Z,12.20
2023-01-21T11:31:35.740Z,12.10
2023-01-21T11:34:22.253Z,12.90
2023-01-21T11:37:01.290Z,12.40
2023-01-21T11:39:40.315Z,14.10
2023-01-21T11:42:12.107Z,13.50
2023-01-21T11:47:46.876Z,13.70
2023-01-21T11:50:24.489Z,14.10
2023-01-21T11:53:14.876Z,14.00
2023-01-21T11:55:47.281Z,13.00
2023-01-21T11:58:26.943Z,12.90
2023-01-21T12:01:26.327Z,13.00
2023-01-21T12:03:56.519Z,14.60
2023-01-21T12:06:30.956Z,13.80
2023-01-21T12:09:01.653Z,14.90
2023-01-21T12:11:29.741Z,12.50
2023-01-21T12:14:30.174Z,12.20
2023-01-21T12:17:12.369Z,12.40
2023-01-21T12:19:52.658Z,13.10
2023-01-21T12:22:40.826Z,11.80
2023-01-21T12:25:38.464Z,12.40
2023-01-21T12:28:28.271Z,12.30
2023-01-21T12:30:58.997Z,13.60
2023-01-21T12:33:32.669Z,14.40
2023-01-21T12:36:40.404Z,13.90
2023-01-21T12:39:33.362Z,11.20
2023-01-21T12:42:31.806Z,14.30
2023-01-21T12:45:12.733Z,13.10
2023-01-21T12:47:47.958Z,13.40
2023-01-21T12:50:41.532Z,12.30
2023-01-21T12:53:29.030Z,13.00
2023-01-21T12:56:13.068Z,13.50
2023-01-21T12:59:01.331Z,12.70
2023-01-21T13:02:05.948Z,13.20
2023-01-21T13:04:48.696Z,12.90
2023-01-21T13:07:40.874Z,13.50
2023-01-21T13:10:31.216Z,13.60
2023-01-21T13:13:19.262Z,12.90
2023-01-21T13:15:54.897Z,13.10
2023-01-21T13:18:42.947Z,12.70
2023-01-21T13:21:49.195Z,13.70
2023-01-21T13:24:25.478Z,14.40
2023-01-21T13:27:30.721Z,12.30
2023-01-21T13:30:16.170Z,14.50
2023-01-21T13:33:25.234Z,14.30
2023-01-21T13:36:13.996Z,13.90
2023-01-21T13:38:53.533Z,14.00
2023-01-21T13:41:39.832Z,13.50
2023-01-21T13:44:43.540Z,13.70
2023-01-21T13:47:38.617Z,12.00
2023-01-21T13:50:46.641Z,12.90
2023-01-21T18:18:01.191Z,14.60
2023-01-21T18:20:28.805Z,14.70
2023-01-21T18:22:56.616Z,15.40
2023-01-21T18:25:23.908Z,15.20
2023-01-21T18:27:59.723Z,16.50
2023-01-21T18:30:30.048Z,14.80
2023-01-21T18:32:57.200Z,13.20
2023-01-21T18:35:28.650Z,13.50
2023-01-21T18:37:55.698Z,15.10
2023-01-21T18:40:23.465Z,14.90
2023-01-21T18:42:52.400Z,16.20
2023-01-21T18:45:20.939Z,16.30
2023-01-21T18:47:48.705Z,14.80
2023-01-21T18:50:19.959Z,14.90
2023-01-21T18:52:46.997Z,15.80
2023-01-21T18:55:15.217Z,16.80
2023-01-21T18:57:43.243Z,15.70
2023-01-21T19:00:30.098Z,12.20
2023-01-21T19:02:58.332Z,14.60
2023-01-21T19:05:27.228Z,13.30
2023-01-21T19:07:54.169Z,15.60
2023-01-21T19:10:21.215Z,13.90
2023-01-21T19:12:48.366Z,16.40
2023-01-21T19:15:15.889Z,14.70
2023-01-21T19:17:43.444Z,15.20
2023-01-21T19:20:17.952Z,14.00
2023-01-21T19:22:45.672Z,15.20
2023-01-21T19:25:12.617Z,14.80
2023-01-21T19:27:43.460Z,15.70
2023-01-21T19:30:22.278Z,13.90
2023-01-21T19:32:49.540Z,15.20
2023-01-21T19:35:17.441Z,14.30
2023-01-21T19:37:45.162Z,14.50
2023-01-21T19:40:31.054Z,14.60
2023-01-21T19:42:58.202Z,13.60
2023-01-21T19:45:27.815Z,12.70
2023-01-21T19:47:54.966Z,13.80
2023-01-21T19:50:25.838Z,16.00
2023-01-21T19:52:53.463Z,12.70
2023-01-21T19:55:22.526Z,15.40
2023-01-21T19:58:01.378Z,16.50
2023-01-21T20:00:33.099Z,15.20
2023-01-21T20:05:29.391Z,15.10
2023-01-21T20:07:56.440Z,13.00
2023-01-21T20:10:25.270Z,15.50
2023-01-21T20:12:52.371Z,15.70
2023-01-21T20:15:21.686Z,14.10
2023-01-21T20:17:52.616Z,15.30
2023-01-21T20:20:21.573Z,14.70
2023-01-21T20:22:48.664Z,16.10
2023-01-21T20:25:17.111Z,15.70
2023-01-21T20:27:46.743Z,16.10
2023-01-21T20:30:21.122Z,16.90
2023-01-21T20:32:48.216Z,16.70
2023-01-21T20:35:17.125Z,17.00
2023-01-21T20:37:49.273Z,16.80
2023-01-21T20:40:20.617Z,17.70
2023-01-21T20:42:47.974Z,19.60
2023-01-21T20:45:16.170Z,17.40
2023-01-21T20:47:50.143Z,15.40
2023-01-21T20:50:23.364Z,16.20
2023-01-21T20:52:51.940Z,17.20
2023-01-21T20:55:21.171Z,16.90
2023-01-21T20:57:48.695Z,15.90
2023-01-21T21:00:29.363Z,17.90
2023-01-21T21:02:56.622Z,15.80
2023-01-21T21:05:24.168Z,15.40
2023-01-21T21:07:51.223Z,17.60
2023-01-21T21:10:22.173Z,17.40
2023-01-21T21:12:49.210Z,18.00
2023-01-21T21:15:16.910Z,17.60
2023-01-21T21:17:44.136Z,15.10
2023-01-21T21:20:22.335Z,14.60
2023-01-21T21:22:49.470Z,15.80
2023-01-21T21:25:17.938Z,16.30
2023-01-21T21:27:45.220Z,15.30
2023-01-21T21:30:21.038Z,17.90
2023-01-21T21:32:47.918Z,16.70
2023-01-21T21:35:35.904Z,14.10
2023-01-21T21:38:07.577Z,16.00
2023-01-21T21:40:37.325Z,15.50
2023-01-21T21:43:23.009Z,16.10
2023-01-21T21:46:08.729Z,15.20
2023-01-21T21:48:38.718Z,15.20
2023-01-21T21:51:09.805Z,13.60
2023-01-21T21:53:37.842Z,15.00
2023-01-21T21:56:09.589Z,13.10
2023-01-21T21:58:36.734Z,13.60
2023-01-21T22:01:26.076Z,14.00
2023-01-21T22:03:53.487Z,15.80
2023-01-21T22:27:03.815Z,19.20
2023-01-21T22:29:30.764Z,18.20
2023-01-21T22:31:57.702Z,15.70
2023-01-21T22:34:24.754Z,15.30
2023-01-21T22:36:53.034Z,14.50
2023-01-21T22:39:20.080Z,15.50
2023-01-21T22:41:47.231Z,17.10
2023-01-21T22:44:14.281Z,15.10
2023-01-21T22:46:41.228Z,16.40
2023-01-21T22:49:09.401Z,16.80
2023-01-21T22:51:36.342Z,15.50
2023-01-21T22:54:03.300Z,16.60
2023-01-21T22:56:50.476Z,17.70
2023-01-21T22:59:17.260Z,17.00
2023-01-21T23:01:44.242Z,15.50
2023-01-21T23:04:11.250Z,16.30
2023-01-21T23:06:38.300Z,18.40
2023-01-21T23:09:06.765Z,16.30
2023-01-21T23:11:36.483Z,16.00
2023-01-21T23:14:03.632Z,17.00
2023-01-21T23:16:30.534Z,17.40
2023-01-21T23:18:57.923Z,15.90
2023-01-21T23:21:24.846Z,15.90
2023-01-21T23:23:51.825Z,18.10
2023-01-21T23:26:19.519Z,17.30
2023-01-21T23:28:46.744Z,17.60
2023-01-21T23:31:15.927Z,19.00
2023-01-21T23:33:43.131Z,17.10
2023-01-21T23:36:13.178Z,16.50
2023-01-21T23:38:41.296Z,16.50
2023-01-21T23:41:10.376Z,16.60
2023-01-21T23:43:37.427Z,18.00
2023-01-21T23:46:08.822Z,19.20
2023-01-21T23:48:35.822Z,18.60
2023-01-21T23:51:11.254Z,18.20
2023-01-21T23:53:38.228Z,17.90
2023-01-21T23:56:06.239Z,17.20
2023-01-21T23:58:33.237Z,20.90
